sensor_id;sensor_type;location;lat;lon;timestamp;pressure;altitude;pressure_sealevel;temperature;humidity
71194;BME280;58903;47.210;8.618;2022-09-09T00:00:48;94036.41;;;28.51;41.47
71194;BME280;58903;47.210;8.618;2022-09-09T00:07:00;94023.84;;;28.50;40.96
71194;BME280;58903;47.210;8.618;2022-09-09T00:15:57;94029.16;;;28.48;41.85
71194;BME280;58903;47.210;8.618;2022-09-09T00:18:47;94026.22;;;28.46;41.45
71194;BME280;58903;47.210;8.618;2022-09-09T00:21:59;94033.00;;;28.45;41.64
71194;BME280;58903;47.210;8.618;2022-09-09T00:27:57;94026.75;;;28.45;41.40
71194;BME280;58903;47.210;8.618;2022-09-09T00:30:46;94030.03;;;28.43;41.62
71194;BME280;58903;47.210;8.618;2022-09-09T00:33:22;94020.78;;;28.41;41.85
71194;BME280;58903;47.210;8.618;2022-09-09T00:36:01;94024.66;;;28.38;41.84
71194;BME280;58903;47.210;8.618;2022-09-09T00:38:35;94019.66;;;28.36;41.17
71194;BME280;58903;47.210;8.618;2022-09-09T00:43:57;94011.88;;;28.34;41.72
71194;BME280;58903;47.210;8.618;2022-09-09T00:57:53;94026.59;;;28.29;41.71
71194;BME280;58903;47.210;8.618;2022-09-09T01:00:46;94022.00;;;28.32;41.68
71194;BME280;58903;47.210;8.618;2022-09-09T01:03:39;94032.00;;;28.35;41.70
71194;BME280;58903;47.210;8.618;2022-09-09T01:09:59;94022.84;;;28.40;41.18
71194;BME280;58903;47.210;8.618;2022-09-09T01:12:58;94020.06;;;28.40;41.40
71194;BME280;58903;47.210;8.618;2022-09-09T01:15:31;94019.50;;;28.42;41.13
71194;BME280;58903;47.210;8.618;2022-09-09T01:18:05;94020.25;;;28.42;41.14
71194;BME280;58903;47.210;8.618;2022-09-09T01:21:04;94026.75;;;28.45;41.14
71194;BME280;58903;47.210;8.618;2022-09-09T01:27:09;94016.59;;;28.47;41.40
71194;BME280;58903;47.210;8.618;2022-09-09T01:30:09;94024.38;;;28.49;41.12
71194;BME280;58903;47.210;8.618;2022-09-09T01:33:14;94020.31;;;28.50;41.17
71194;BME280;58903;47.210;8.618;2022-09-09T01:38:48;94022.13;;;28.47;41.03
71194;BME280;58903;47.210;8.618;2022-09-09T01:41:13;94023.44;;;28.46;41.40
71194;BME280;58903;47.210;8.618;2022-09-09T01:43:41;94026.00;;;28.44;40.95
71194;BME280;58903;47.210;8.618;2022-09-09T01:46:21;94023.97;;;28.45;40.97
71194;BME280;58903;47.210;8.618;2022-09-09T01:49:09;94021.94;;;28.45;41.33
71194;BME280;58903;47.210;8.618;2022-09-09T01:51:49;94025.47;;;28.46;41.03
71194;BME280;58903;47.210;8.618;2022-09-09T01:54:31;94031.75;;;28.46;40.97
71194;BME280;58903;47.210;8.618;2022-09-09T02:00:12;94038.53;;;28.45;41.40
71194;BME280;58903;47.210;8.618;2022-09-09T02:02:49;94044.06;;;28.45;41.12
71194;BME280;58903;47.210;8.618;2022-09-09T02:05:45;94042.59;;;28.44;41.22
71194;BME280;58903;47.210;8.618;2022-09-09T02:08:50;94046.63;;;28.43;41.19
71194;BME280;58903;47.210;8.618;2022-09-09T02:11:28;94050.69;;;28.42;41.42
71194;BME280;58903;47.210;8.618;2022-09-09T02:14:01;94044.41;;;28.42;40.99
71194;BME280;58903;47.210;8.618;2022-09-09T02:16:46;94047.94;;;28.42;41.16
71194;BME280;58903;47.210;8.618;2022-09-09T02:22:33;94051.75;;;28.39;41.07
71194;BME280;58903;47.210;8.618;2022-09-09T02:25:05;94046.97;;;28.40;40.80
71194;BME280;58903;47.210;8.618;2022-09-09T02:27:33;94052.50;;;28.40;40.95
71194;BME280;58903;47.210;8.618;2022-09-09T02:30:02;94053.78;;;28.38;41.13
71194;BME280;58903;47.210;8.618;2022-09-09T02:32:38;94057.28;;;28.39;40.70
71194;BME280;58903;47.210;8.618;2022-09-09T02:35:23;94052.84;;;28.36;41.33
71194;BME280;58903;47.210;8.618;2022-09-09T02:38:09;94059.31;;;28.38;41.07
71194;BME280;58903;47.210;8.618;2022-09-09T02:40:41;94061.88;;;28.36;40.89
71194;BME280;58903;47.210;8.618;2022-09-09T02:43:06;94073.69;;;28.37;41.75
71194;BME280;58903;47.210;8.618;2022-09-09T02:45:45;94066.44;;;28.34;40.98
71194;BME280;58903;47.210;8.618;2022-09-09T02:51:16;94067.94;;;28.35;41.02
71194;BME280;58903;47.210;8.618;2022-09-09T02:54:07;94072.72;;;28.34;40.93
71194;BME280;58903;47.210;8.618;2022-09-09T02:56:40;94080.50;;;28.36;41.25
71194;BME280;58903;47.210;8.618;2022-09-09T02:59:13;94075.28;;;28.32;40.89
71194;BME280;58903;47.210;8.618;2022-09-09T03:02:07;94075.28;;;28.32;40.90
71194;BME280;58903;47.210;8.618;2022-09-09T03:04:37;94079.88;;;28.30;41.00
71194;BME280;58903;47.210;8.618;2022-09-09T03:07:16;94081.91;;;28.29;41.55
71194;BME280;58903;47.210;8.618;2022-09-09T03:09:43;94084.44;;;28.27;41.32
71194;BME280;58903;47.210;8.618;2022-09-09T03:12:18;94082.97;;;28.26;41.33
71194;BME280;58903;47.210;8.618;2022-09-09T03:14:50;94081.69;;;28.27;41.05
71194;BME280;58903;47.210;8.618;2022-09-09T03:17:19;94080.56;;;28.23;41.13
71194;BME280;58903;47.210;8.618;2022-09-09T03:20:07;94094.78;;;28.27;41.07
71194;BME280;58903;47.210;8.618;2022-09-09T03:22:56;94082.44;;;28.28;41.30
71194;BME280;58903;47.210;8.618;2022-09-09T03:25:56;94089.25;;;28.27;41.43
71194;BME280;58903;47.210;8.618;2022-09-09T03:28:39;94089.06;;;28.25;41.16
71194;BME280;58903;47.210;8.618;2022-09-09T03:31:16;94088.50;;;28.26;41.33
71194;BME280;58903;47.210;8.618;2022-09-09T03:34:03;94082.22;;;28.26;41.19
71194;BME280;58903;47.210;8.618;2022-09-09T03:36:32;94084.78;;;28.24;41.49
71194;BME280;58903;47.210;8.618;2022-09-09T03:39:04;94080.75;;;28.25;41.24
71194;BME280;58903;47.210;8.618;2022-09-09T03:41:39;94082.78;;;28.24;40.77
71194;BME280;58903;47.210;8.618;2022-09-09T03:44:07;94085.53;;;28.24;41.33
71194;BME280;58903;47.210;8.618;2022-09-09T03:46:33;94068.75;;;28.22;41.12
71194;BME280;58903;47.210;8.618;2022-09-09T03:49:03;94071.16;;;28.26;41.15
71194;BME280;58903;47.210;8.618;2022-09-09T03:51:36;94063.63;;;28.26;41.30
71194;BME280;58903;47.210;8.618;2022-09-09T03:54:09;94070.97;;;28.24;40.95
71194;BME280;58903;47.210;8.618;2022-09-09T03:56:37;94064.16;;;28.25;41.01
71194;BME280;58903;47.210;8.618;2022-09-09T03:59:24;94066.94;;;28.25;41.25
71194;BME280;58903;47.210;8.618;2022-09-09T04:01:51;94067.44;;;28.23;41.07
71194;BME280;58903;47.210;8.618;2022-09-09T04:04:48;94068.94;;;28.24;41.30
71194;BME280;58903;47.210;8.618;2022-09-09T04:10:47;94073.53;;;28.22;41.31
71194;BME280;58903;47.210;8.618;2022-09-09T04:13:17;94070.75;;;28.22;41.20
71194;BME280;58903;47.210;8.618;2022-09-09T04:16:02;94074.78;;;28.21;41.01
71194;BME280;58903;47.210;8.618;2022-09-09T04:18:30;94072.56;;;28.19;41.25
71194;BME280;58903;47.210;8.618;2022-09-09T04:20:57;94066.28;;;28.19;41.17
71194;BME280;58903;47.210;8.618;2022-09-09T04:23:27;94080.84;;;28.19;40.82
71194;BME280;58903;47.210;8.618;2022-09-09T04:25:56;94079.91;;;28.17;41.16
71194;BME280;58903;47.210;8.618;2022-09-09T04:28:25;94079.19;;;28.16;41.30
71194;BME280;58903;47.210;8.618;2022-09-09T04:30:51;94075.66;;;28.16;41.39
71194;BME280;58903;47.210;8.618;2022-09-09T04:33:19;94073.66;;;28.16;41.23
71194;BME280;58903;47.210;8.618;2022-09-09T04:35:47;94072.34;;;28.17;40.44
71194;BME280;58903;47.210;8.618;2022-09-09T04:38:31;94059.59;;;28.14;41.25
71194;BME280;58903;47.210;8.618;2022-09-09T04:40:56;94063.84;;;28.15;41.35
71194;BME280;58903;47.210;8.618;2022-09-09T04:43:23;94062.91;;;28.13;41.57
71194;BME280;58903;47.210;8.618;2022-09-09T04:45:53;94067.69;;;28.12;41.31
71194;BME280;58903;47.210;8.618;2022-09-09T04:48:31;94079.91;;;28.17;40.86
71194;BME280;58903;47.210;8.618;2022-09-09T04:51:19;94068.63;;;28.15;41.25
71194;BME280;58903;47.210;8.618;2022-09-09T04:53:51;94077.81;;;28.10;41.28
71194;BME280;58903;47.210;8.618;2022-09-09T04:56:31;94075.06;;;28.10;41.08
71194;BME280;58903;47.210;8.618;2022-09-09T04:59:07;94069.53;;;28.10;41.69
71194;BME280;58903;47.210;8.618;2022-09-09T05:01:39;94074.59;;;28.06;41.41
71194;BME280;58903;47.210;8.618;2022-09-09T05:04:10;94075.50;;;28.01;41.42
71194;BME280;58903;47.210;8.618;2022-09-09T05:06:38;94069.00;;;27.98;41.56
71194;BME280;58903;47.210;8.618;2022-09-09T05:09:17;94073.22;;;27.99;41.71
71194;BME280;58903;47.210;8.618;2022-09-09T05:11:44;94068.88;;;28.04;41.33
71194;BME280;58903;47.210;8.618;2022-09-09T05:14:17;94067.59;;;28.05;41.07
71194;BME280;58903;47.210;8.618;2022-09-09T05:17:02;94075.34;;;28.06;41.28
71194;BME280;58903;47.210;8.618;2022-09-09T05:19:29;94070.56;;;28.07;41.60
71194;BME280;58903;47.210;8.618;2022-09-09T05:21:56;94071.31;;;28.07;41.08
71194;BME280;58903;47.210;8.618;2022-09-09T05:24:29;94071.13;;;28.05;41.42
71194;BME280;58903;47.210;8.618;2022-09-09T05:27:07;94064.63;;;28.03;41.29
71194;BME280;58903;47.210;8.618;2022-09-09T05:29:39;94071.84;;;28.06;41.52
71194;BME280;58903;47.210;8.618;2022-09-09T05:32:13;94069.28;;;28.08;41.46
71194;BME280;58903;47.210;8.618;2022-09-09T05:34:59;94065.59;;;28.05;41.54
71194;BME280;58903;47.210;8.618;2022-09-09T05:37:44;94076.84;;;28.07;41.76
71194;BME280;58903;47.210;8.618;2022-09-09T05:40:15;94077.56;;;28.08;41.76
71194;BME280;58903;47.210;8.618;2022-09-09T05:42:42;94080.88;;;28.06;41.27
71194;BME280;58903;47.210;8.618;2022-09-09T05:45:13;94086.97;;;28.05;41.81
71194;BME280;58903;47.210;8.618;2022-09-09T05:47:39;94084.19;;;28.05;41.57
71194;BME280;58903;47.210;8.618;2022-09-09T05:50:05;94088.22;;;28.04;41.20
71194;BME280;58903;47.210;8.618;2022-09-09T05:52:38;94084.53;;;28.01;41.32
71194;BME280;58903;47.210;8.618;2022-09-09T05:55:06;94099.06;;;28.02;41.21
71194;BME280;58903;47.210;8.618;2022-09-09T05:57:37;94088.22;;;28.04;41.45
71194;BME280;58903;47.210;8.618;2022-09-09T06:00:04;94086.53;;;28.01;41.57
71194;BME280;58903;47.210;8.618;2022-09-09T06:02:50;94093.03;;;28.03;41.37
71194;BME280;58903;47.210;8.618;2022-09-09T06:05:21;94099.28;;;28.04;41.62
71194;BME280;58903;47.210;8.618;2022-09-09T06:07:55;94095.03;;;28.03;41.17
71194;BME280;58903;47.210;8.618;2022-09-09T06:10:23;94093.75;;;28.04;40.88
71194;BME280;58903;47.210;8.618;2022-09-09T06:12:57;94094.84;;;28.01;41.32
71194;BME280;58903;47.210;8.618;2022-09-09T06:15:36;94104.81;;;28.04;41.25
71194;BME280;58903;47.210;8.618;2022-09-09T06:18:12;94095.25;;;28.05;41.67
71194;BME280;58903;47.210;8.618;2022-09-09T06:20:38;94093.97;;;28.06;41.34
71194;BME280;58903;47.210;8.618;2022-09-09T06:23:40;94089.72;;;28.05;41.32
71194;BME280;58903;47.210;8.618;2022-09-09T06:29:41;94086.75;;;28.03;41.47
71194;BME280;58903;47.210;8.618;2022-09-09T06:32:20;94088.97;;;28.04;41.36
71194;BME280;58903;47.210;8.618;2022-09-09T06:34:48;94088.97;;;28.04;41.50
71194;BME280;58903;47.210;8.618;2022-09-09T06:37:19;94087.50;;;28.03;41.28
71194;BME280;58903;47.210;8.618;2022-09-09T06:39:46;94078.88;;;28.07;40.98
71194;BME280;58903;47.210;8.618;2022-09-09T06:42:12;94082.91;;;28.06;41.49
71194;BME280;58903;47.210;8.618;2022-09-09T06:44:38;94077.38;;;28.06;41.07
71194;BME280;58903;47.210;8.618;2022-09-09T06:47:03;94070.91;;;28.03;41.24
71194;BME280;58903;47.210;8.618;2022-09-09T06:49:32;94077.38;;;28.06;40.90
71194;BME280;58903;47.210;8.618;2022-09-09T06:51:58;94076.66;;;28.05;41.23
71194;BME280;58903;47.210;8.618;2022-09-09T06:55:04;94080.88;;;28.06;41.18
71194;BME280;58903;47.210;8.618;2022-09-09T06:57:55;94078.66;;;28.05;41.08
71194;BME280;58903;47.210;8.618;2022-09-09T07:00:33;94085.25;;;28.02;41.41
71194;BME280;58903;47.210;8.618;2022-09-09T07:03:10;94078.03;;;27.99;41.33
71194;BME280;58903;47.210;8.618;2022-09-09T07:06:12;94084.84;;;27.98;41.28
71194;BME280;58903;47.210;8.618;2022-09-09T07:09:01;94086.84;;;27.97;41.56
71194;BME280;58903;47.210;8.618;2022-09-09T07:11:33;94086.34;;;27.99;41.27
71194;BME280;58903;47.210;8.618;2022-09-09T07:14:17;94091.88;;;27.99;41.39
71194;BME280;58903;47.210;8.618;2022-09-09T07:17:00;94086.84;;;27.97;41.44
71194;BME280;58903;47.210;8.618;2022-09-09T07:19:28;94083.34;;;27.97;41.07
71194;BME280;58903;47.210;8.618;2022-09-09T07:21:56;94083.34;;;27.97;41.29
71194;BME280;58903;47.210;8.618;2022-09-09T07:24:26;94080.06;;;27.98;41.63
71194;BME280;58903;47.210;8.618;2022-09-09T07:27:04;94085.34;;;27.96;41.25
71194;BME280;58903;47.210;8.618;2022-09-09T07:29:42;94082.59;;;27.96;41.33
71194;BME280;58903;47.210;8.618;2022-09-09T07:32:08;94087.38;;;27.96;41.63
71194;BME280;58903;47.210;8.618;2022-09-09T07:34:44;94095.66;;;27.96;41.49
71194;BME280;58903;47.210;8.618;2022-09-09T07:37:35;94090.38;;;27.98;41.26
71194;BME280;58903;47.210;8.618;2022-09-09T07:40:19;94104.41;;;28.00;41.49
71194;BME280;58903;47.210;8.618;2022-09-09T07:42:48;94098.34;;;28.01;41.68
71194;BME280;58903;47.210;8.618;2022-09-09T07:45:16;94100.38;;;28.01;41.29
71194;BME280;58903;47.210;8.618;2022-09-09T07:47:42;94098.88;;;28.00;41.41
71194;BME280;58903;47.210;8.618;2022-09-09T07:50:09;94101.13;;;28.01;41.28
71194;BME280;58903;47.210;8.618;2022-09-09T07:53:10;94116.22;;;28.00;41.56
71194;BME280;58903;47.210;8.618;2022-09-09T07:55:46;94110.69;;;28.00;41.61
71194;BME280;58903;47.210;8.618;2022-09-09T07:58:27;94103.66;;;27.99;41.34
71194;BME280;58903;47.210;8.618;2022-09-09T08:04:10;94105.16;;;28.00;41.07
71194;BME280;58903;47.210;8.618;2022-09-09T08:06:48;94105.34;;;28.02;41.20
71194;BME280;58903;47.210;8.618;2022-09-09T08:09:15;94102.38;;;28.00;41.77
71194;BME280;58903;47.210;8.618;2022-09-09T08:11:42;94099.81;;;28.02;41.41
71194;BME280;58903;47.210;8.618;2022-09-09T08:14:22;94111.63;;;28.03;41.61
71194;BME280;58903;47.210;8.618;2022-09-09T08:17:10;94118.44;;;28.02;41.90
71194;BME280;58903;47.210;8.618;2022-09-09T08:19:41;94117.72;;;28.01;41.15
71194;BME280;58903;47.210;8.618;2022-09-09T08:22:07;94128.75;;;28.01;41.29
71194;BME280;58903;47.210;8.618;2022-09-09T08:24:34;94128.75;;;28.01;41.38
71194;BME280;58903;47.210;8.618;2022-09-09T08:26:59;94117.16;;;28.03;41.61
71194;BME280;58903;47.210;8.618;2022-09-09T08:29:25;94125.47;;;28.03;41.72
71194;BME280;58903;47.210;8.618;2022-09-09T08:31:55;94129.50;;;28.02;41.33
71194;BME280;58903;47.210;8.618;2022-09-09T08:34:24;94125.25;;;28.01;41.21
71194;BME280;58903;47.210;8.618;2022-09-09T08:36:53;94115.66;;;28.02;41.18
71194;BME280;58903;47.210;8.618;2022-09-09T08:39:21;94118.44;;;28.02;41.20
71194;BME280;58903;47.210;8.618;2022-09-09T08:53:17;94116.63;;;28.04;41.21
71194;BME280;58903;47.210;8.618;2022-09-09T08:55:58;94122.16;;;28.04;42.00
71194;BME280;58903;47.210;8.618;2022-09-09T08:58:45;94131.94;;;28.05;41.85
71194;BME280;58903;47.210;8.618;2022-09-09T09:05:01;94129.19;;;28.05;41.46
71194;BME280;58903;47.210;8.618;2022-09-09T09:18:48;94114.06;;;28.06;41.27
71194;BME280;58903;47.210;8.618;2022-09-09T09:27:33;94115.56;;;28.07;41.83
71194;BME280;58903;47.210;8.618;2022-09-09T09:30:05;94121.09;;;28.07;41.52
71194;BME280;58903;47.210;8.618;2022-09-09T09:33:17;94123.13;;;28.07;41.66
71194;BME280;58903;47.210;8.618;2022-09-09T09:35:50;94120.34;;;28.07;41.80
71194;BME280;58903;47.210;8.618;2022-09-09T09:38:30;94123.66;;;28.05;41.36
71194;BME280;58903;47.210;8.618;2022-09-09T09:40:58;94120.69;;;28.03;41.54
71194;BME280;58903;47.210;8.618;2022-09-09T09:45:58;94120.97;;;28.00;42.19
71194;BME280;58903;47.210;8.618;2022-09-09T09:48:26;94120.78;;;27.98;41.77
71194;BME280;58903;47.210;8.618;2022-09-09T09:56:13;94111.44;;;28.01;42.18
71194;BME280;58903;47.210;8.618;2022-09-09T09:58:51;94099.63;;;28.00;41.89
71194;BME280;58903;47.210;8.618;2022-09-09T10:04:21;94112.91;;;28.02;41.82
71194;BME280;58903;47.210;8.618;2022-09-09T10:06:51;94125.03;;;27.99;41.76
71194;BME280;58903;47.210;8.618;2022-09-09T10:09:27;94141.38;;;27.97;41.81
71194;BME280;58903;47.210;8.618;2022-09-09T10:37:55;94132.03;;;28.00;41.84
71194;BME280;58903;47.210;8.618;2022-09-09T10:40:43;94133.53;;;28.01;42.01
71194;BME280;58903;47.210;8.618;2022-09-09T10:46:17;94133.84;;;27.97;41.38
71194;BME280;58903;47.210;8.618;2022-09-09T10:52:15;94132.03;;;28.00;41.53
71194;BME280;58903;47.210;8.618;2022-09-09T10:58:04;94136.53;;;28.03;41.74
71194;BME280;58903;47.210;8.618;2022-09-09T11:00:45;94131.75;;;28.03;41.52
71194;BME280;58903;47.210;8.618;2022-09-09T11:03:26;94124.38;;;28.06;41.04
71194;BME280;58903;47.210;8.618;2022-09-09T11:06:19;94124.38;;;28.06;41.72
71194;BME280;58903;47.210;8.618;2022-09-09T11:08:50;94123.88;;;28.07;41.68
71194;BME280;58903;47.210;8.618;2022-09-09T11:11:44;94116.28;;;28.08;41.58
71194;BME280;58903;47.210;8.618;2022-09-09T11:14:36;94117.78;;;28.09;41.27
71194;BME280;58903;47.210;8.618;2022-09-09T11:17:15;94117.78;;;28.09;41.79
71194;BME280;58903;47.210;8.618;2022-09-09T11:20:24;94108.44;;;28.12;41.65
71194;BME280;58903;47.210;8.618;2022-09-09T11:23:20;94111.94;;;28.12;41.64
71194;BME280;58903;47.210;8.618;2022-09-09T11:25:57;94110.66;;;28.13;42.20
71194;BME280;58903;47.210;8.618;2022-09-09T11:34:33;94104.59;;;28.15;41.74
71194;BME280;58903;47.210;8.618;2022-09-09T11:43:11;94106.28;;;28.18;42.03
71194;BME280;58903;47.210;8.618;2022-09-09T11:45:53;94102.78;;;28.17;42.27
71194;BME280;58903;47.210;8.618;2022-09-09T11:48:36;94098.00;;;28.18;42.20
71194;BME280;58903;47.210;8.618;2022-09-09T11:51:11;94105.75;;;28.19;41.73
71194;BME280;58903;47.210;8.618;2022-09-09T11:53:56;94103.94;;;28.22;42.35
71194;BME280;58903;47.210;8.618;2022-09-09T11:56:32;94101.38;;;28.24;41.85
71194;BME280;58903;47.210;8.618;2022-09-09T11:59:21;94094.16;;;28.21;42.29
71194;BME280;58903;47.210;8.618;2022-09-09T12:02:16;94104.69;;;28.22;42.33
71194;BME280;58903;47.210;8.618;2022-09-09T12:05:09;94102.88;;;28.25;42.26
71194;BME280;58903;47.210;8.618;2022-09-09T12:07:55;94109.69;;;28.24;41.72
71194;BME280;58903;47.210;8.618;2022-09-09T12:10:39;94101.59;;;28.26;42.10
71194;BME280;58903;47.210;8.618;2022-09-09T12:13:27;94093.63;;;28.22;42.59
71194;BME280;58903;47.210;8.618;2022-09-09T12:16:02;94094.25;;;28.28;42.19
71194;BME280;58903;47.210;8.618;2022-09-09T12:18:38;94091.88;;;28.32;42.24
71194;BME280;58903;47.210;8.618;2022-09-09T12:21:44;94084.34;;;28.33;42.06
71194;BME280;58903;47.210;8.618;2022-09-09T12:24:31;94085.59;;;28.32;41.87
71194;BME280;58903;47.210;8.618;2022-09-09T12:27:24;94091.88;;;28.32;41.81
71194;BME280;58903;47.210;8.618;2022-09-09T12:30:16;94080.81;;;28.32;41.96
71194;BME280;58903;47.210;8.618;2022-09-09T12:32:45;94081.56;;;28.33;42.33
71194;BME280;58903;47.210;8.618;2022-09-09T12:35:25;94079.00;;;28.35;42.00
71194;BME280;58903;47.210;8.618;2022-09-09T12:38:00;94077.19;;;28.38;42.18
71194;BME280;58903;47.210;8.618;2022-09-09T12:40:54;94079.44;;;28.39;41.33
71194;BME280;58903;47.210;8.618;2022-09-09T12:43:22;94075.38;;;28.40;41.16
71194;BME280;58903;47.210;8.618;2022-09-09T12:45:56;94083.47;;;28.38;40.86
71194;BME280;58903;47.210;8.618;2022-09-09T12:48:35;94071.66;;;28.38;40.62
71194;BME280;58903;47.210;8.618;2022-09-09T12:51:05;94072.41;;;28.38;40.77
71194;BME280;58903;47.210;8.618;2022-09-09T12:53:36;94076.44;;;28.37;40.31
71194;BME280;58903;47.210;8.618;2022-09-09T12:56:19;94063.91;;;28.36;40.47
71194;BME280;58903;47.210;8.618;2022-09-09T12:58:58;94066.13;;;28.38;40.91
71194;BME280;58903;47.210;8.618;2022-09-09T13:01:32;94061.34;;;28.38;40.49
71194;BME280;58903;47.210;8.618;2022-09-09T13:04:20;94068.16;;;28.37;41.22
71194;BME280;58903;47.210;8.618;2022-09-09T13:06:47;94068.91;;;28.38;41.03
71194;BME280;58903;47.210;8.618;2022-09-09T13:09:21;94061.34;;;28.38;40.72
71194;BME280;58903;47.210;8.618;2022-09-09T13:11:56;94058.59;;;28.38;40.46
71194;BME280;58903;47.210;8.618;2022-09-09T13:14:36;94053.97;;;28.41;40.69
71194;BME280;58903;47.210;8.618;2022-09-09T13:17:06;94048.69;;;28.43;41.21
71194;BME280;58903;47.210;8.618;2022-09-09T13:19:55;94044.06;;;28.45;41.14
71194;BME280;58903;47.210;8.618;2022-09-09T13:22:35;94049.19;;;28.41;41.81
71194;BME280;58903;47.210;8.618;2022-09-09T13:25:22;94043.66;;;28.41;41.67
71194;BME280;58903;47.210;8.618;2022-09-09T13:28:21;94040.16;;;28.41;41.02
71194;BME280;58903;47.210;8.618;2022-09-09T13:31:18;94035.78;;;28.45;41.17
71194;BME280;58903;47.210;8.618;2022-09-09T13:33:45;94034.84;;;28.43;41.24
71194;BME280;58903;47.210;8.618;2022-09-09T13:36:13;94037.06;;;28.44;41.35
71194;BME280;58903;47.210;8.618;2022-09-09T13:41:51;94033.34;;;28.42;40.81
71194;BME280;58903;47.210;8.618;2022-09-09T13:44:27;94036.13;;;28.42;40.31
71194;BME280;58903;47.210;8.618;2022-09-09T13:47:15;94029.84;;;28.41;41.20
71194;BME280;58903;47.210;8.618;2022-09-09T13:49:42;94036.13;;;28.42;40.93
71194;BME280;58903;47.210;8.618;2022-09-09T13:54:39;94039.63;;;28.42;40.96
71194;BME280;58903;47.210;8.618;2022-09-09T13:57:13;94041.09;;;28.43;40.07
71194;BME280;58903;47.210;8.618;2022-09-09T13:59:40;94039.28;;;28.46;40.88
71194;BME280;58903;47.210;8.618;2022-09-09T14:02:32;94034.31;;;28.44;40.87
71194;BME280;58903;47.210;8.618;2022-09-09T14:05:18;94033.75;;;28.46;40.95
71194;BME280;58903;47.210;8.618;2022-09-09T14:07:50;94031.41;;;28.50;40.89
71194;BME280;58903;47.210;8.618;2022-09-09T14:10:21;94027.16;;;28.49;41.00
71194;BME280;58903;47.210;8.618;2022-09-09T14:12:50;94030.44;;;28.47;40.85
71194;BME280;58903;47.210;8.618;2022-09-09T14:15:21;94022.78;;;28.53;41.25
71194;BME280;58903;47.210;8.618;2022-09-09T14:17:47;94021.28;;;28.52;41.07
71194;BME280;58903;47.210;8.618;2022-09-09T14:20:16;94024.03;;;28.52;40.71
71194;BME280;58903;47.210;8.618;2022-09-09T14:22:45;94018.31;;;28.50;41.24
71194;BME280;58903;47.210;8.618;2022-09-09T14:25:11;94015.75;;;28.52;41.05
71194;BME280;58903;47.210;8.618;2022-09-09T14:27:49;94021.28;;;28.52;41.35
71194;BME280;58903;47.210;8.618;2022-09-09T14:30:17;94012.78;;;28.50;40.93
71194;BME280;58903;47.210;8.618;2022-09-09T14:32:46;94022.03;;;28.53;40.86
71194;BME280;58903;47.210;8.618;2022-09-09T14:35:12;94022.22;;;28.55;40.81
71194;BME280;58903;47.210;8.618;2022-09-09T14:37:38;94015.75;;;28.52;41.07
71194;BME280;58903;47.210;8.618;2022-09-09T14:40:06;94018.50;;;28.52;40.64
71194;BME280;58903;47.210;8.618;2022-09-09T14:42:35;94017.56;;;28.50;41.04
71194;BME280;58903;47.210;8.618;2022-09-09T14:45:03;94020.13;;;28.48;40.95
71194;BME280;58903;47.210;8.618;2022-09-09T14:47:29;94022.38;;;28.49;40.91
71194;BME280;58903;47.210;8.618;2022-09-09T14:49:55;94018.31;;;28.50;40.97
71194;BME280;58903;47.210;8.618;2022-09-09T14:52:21;94019.59;;;28.49;40.86
71194;BME280;58903;47.210;8.618;2022-09-09T14:54:48;94027.34;;;28.51;40.87
71194;BME280;58903;47.210;8.618;2022-09-09T14:57:28;94021.63;;;28.49;41.24
71194;BME280;58903;47.210;8.618;2022-09-09T14:59:54;94018.31;;;28.50;41.35
71194;BME280;58903;47.210;8.618;2022-09-09T15:02:40;94030.44;;;28.47;41.11
71194;BME280;58903;47.210;8.618;2022-09-09T15:05:36;94038.22;;;28.49;41.18
71194;BME280;58903;47.210;8.618;2022-09-09T15:08:05;94030.44;;;28.47;41.26
71194;BME280;58903;47.210;8.618;2022-09-09T15:10:41;94027.91;;;28.49;41.15
71194;BME280;58903;47.210;8.618;2022-09-09T15:13:26;94031.78;;;28.54;40.88
71194;BME280;58903;47.210;8.618;2022-09-09T15:15:55;94029.78;;;28.54;41.22
71194;BME280;58903;47.210;8.618;2022-09-09T15:18:40;94024.69;;;28.58;41.16
71194;BME280;58903;47.210;8.618;2022-09-09T15:21:26;94032.75;;;28.56;40.98
71194;BME280;58903;47.210;8.618;2022-09-09T15:23:53;94027.97;;;28.57;40.95
71194;BME280;58903;47.210;8.618;2022-09-09T15:26:30;94033.19;;;28.60;41.19
71194;BME280;58903;47.210;8.618;2022-09-09T15:29:01;94032.66;;;28.62;40.59
71194;BME280;58903;47.210;8.618;2022-09-09T15:31:30;94031.03;;;28.66;40.81
71194;BME280;58903;47.210;8.618;2022-09-09T15:34:08;94029.75;;;28.67;40.93
71194;BME280;58903;47.210;8.618;2022-09-09T15:36:45;94033.06;;;28.66;41.02
71194;BME280;58903;47.210;8.618;2022-09-09T15:39:43;94028.78;;;28.65;40.74
71194;BME280;58903;47.210;8.618;2022-09-09T15:42:14;94023.47;;;28.67;40.94
71194;BME280;58903;47.210;8.618;2022-09-09T15:44:45;94029.75;;;28.67;40.77
71194;BME280;58903;47.210;8.618;2022-09-09T15:47:12;94021.44;;;28.67;40.85
71194;BME280;58903;47.210;8.618;2022-09-09T15:49:40;94025.50;;;28.66;40.62
71194;BME280;58903;47.210;8.618;2022-09-09T15:52:17;94023.34;;;28.72;40.95
71194;BME280;58903;47.210;8.618;2022-09-09T15:54:43;94019.16;;;28.79;40.56
71194;BME280;58903;47.210;8.618;2022-09-09T15:57:24;94012.66;;;28.76;40.49
71194;BME280;58903;47.210;8.618;2022-09-09T15:59:52;94019.69;;;28.77;40.43
71194;BME280;58903;47.210;8.618;2022-09-09T16:02:35;94022.66;;;28.79;40.53
71194;BME280;58903;47.210;8.618;2022-09-09T16:05:32;94023.81;;;28.84;40.53
71194;BME280;58903;47.210;8.618;2022-09-09T16:08:03;94023.47;;;28.87;40.76
71194;BME280;58903;47.210;8.618;2022-09-09T16:10:32;94024.94;;;28.88;40.34
71194;BME280;58903;47.210;8.618;2022-09-09T16:13:01;94021.84;;;28.92;40.25
71194;BME280;58903;47.210;8.618;2022-09-09T16:15:27;94025.56;;;28.94;40.22
71194;BME280;58903;47.210;8.618;2022-09-09T16:18:02;94015.22;;;28.95;39.74
71194;BME280;58903;47.210;8.618;2022-09-09T16:20:39;94021.88;;;28.99;40.16
71194;BME280;58903;47.210;8.618;2022-09-09T16:23:14;94019.31;;;29.01;39.80